Time;durP1;ratioP1;P1;durP2;ratioP2;P2;SDS_P1;SDS_P2;PMS_P1;PMS_P2;Temp;Humidity;BMP_temperature;BMP_pressure;BME280_temperature;BME280_humidity;BME280_pressure;Samples;Min_cycle;Max_cycle;Signal;HPM_P1;HPM_P2
2023/03/02 00:01:23;;;;;;;2.08;1.98;;;3.30;96.40;;;;;;5093808;28;20518;-69
2023/03/02 00:03:49;;;;;;;4.00;3.80;;;3.40;96.30;;;;;;5093566;28;20196;-69
2023/03/02 00:06:15;;;;;;;1.83;1.83;;;3.30;96.10;;;;;;5093437;28;20260;-70
2023/03/02 00:08:41;;;;;;;4.18;2.15;;;3.30;96.40;;;;;;5091886;28;20196;-70
2023/03/02 00:11:07;;;;;;;2.38;1.35;;;3.30;96.40;;;;;;5093513;28;20556;-70
2023/03/02 00:13:35;;;;;;;4.20;3.50;;;3.30;96.50;;;;;;5092199;28;20180;-70
2023/03/02 00:16:01;;;;;;;6.93;3.25;;;3.20;96.60;;;;;;5093369;28;20168;-70
2023/03/02 00:18:27;;;;;;;4.70;4.37;;;3.20;96.60;;;;;;5093344;28;20730;-70
2023/03/02 00:20:52;;;;;;;5.17;4.83;;;3.20;96.90;;;;;;5091843;28;20177;-70
2023/03/02 00:23:18;;;;;;;0.57;0.57;;;3.20;96.80;;;;;;5093280;28;20169;-71
2023/03/02 00:25:44;;;;;;;2.53;2.30;;;3.10;97.00;;;;;;5093428;28;20192;-70
2023/03/02 00:28:09;;;;;;;1.00;1.00;;;3.10;97.20;;;;;;5093319;28;20189;-69
2023/03/02 00:30:37;;;;;;;2.70;2.47;;;3.30;97.10;;;;;;5093128;28;20837;-69
2023/03/02 00:33:03;;;;;;;2.72;2.63;;;3.40;97.20;;;;;;5092116;28;20176;-70
2023/03/02 00:35:28;;;;;;;6.43;2.80;;;3.40;96.60;;;;;;5091757;28;20184;-69
2023/03/02 00:37:54;;;;;;;3.60;2.30;;;3.40;96.60;;;;;;5093531;28;20773;-70
2023/03/02 00:40:20;;;;;;;4.10;3.77;;;3.30;96.60;;;;;;5097186;28;20172;-69
2023/03/02 00:42:45;;;;;;;5.53;5.03;;;3.30;96.80;;;;;;5097352;28;20536;-70
2023/03/02 00:45:11;;;;;;;0.80;0.80;;;3.40;96.70;;;;;;5097116;28;20542;-70
2023/03/02 00:47:37;;;;;;;2.00;1.90;;;3.30;96.60;;;;;;5095672;28;20578;-70
2023/03/02 00:50:04;;;;;;;2.87;2.67;;;3.20;96.80;;;;;;5096754;28;20200;-71
2023/03/02 00:52:31;;;;;;;6.25;5.68;;;2.90;97.30;;;;;;5096989;28;20227;-69
2023/03/02 00:54:57;;;;;;;5.25;2.90;;;2.70;97.70;;;;;;5097149;28;20215;-71
2023/03/02 00:57:23;;;;;;;3.20;3.00;;;2.70;97.90;;;;;;5097096;28;20172;-69
2023/03/02 00:59:48;;;;;;;3.90;3.70;;;2.70;98.00;;;;;;5096611;28;20584;-71
2023/03/02 01:02:14;;;;;;;1.27;1.27;;;2.70;98.00;;;;;;5096989;28;20282;-70
2023/03/02 01:04:42;;;;;;;2.37;2.27;;;2.80;97.80;;;;;;5096777;28;20252;-71
2023/03/02 01:07:13;;;;;;;2.92;2.72;;;2.80;97.70;;;;;;5096937;28;20172;-69
2023/03/02 01:09:41;;;;;;;4.72;2.13;;;2.90;97.70;;;;;;5095105;28;20200;-70
2023/03/02 01:12:10;;;;;;;0.50;0.50;;;2.90;97.60;;;;;;5096911;28;20169;-70
2023/03/02 01:14:40;;;;;;;2.05;1.95;;;2.80;97.60;;;;;;5096704;28;20573;-69
2023/03/02 01:17:08;;;;;;;3.25;2.13;;;2.70;97.70;;;;;;5096600;28;20256;-70
2023/03/02 01:19:34;;;;;;;1.50;1.40;;;2.70;97.80;;;;;;5096293;28;20193;-69
2023/03/02 01:22:00;;;;;;;1.73;1.63;;;2.70;97.90;;;;;;5096749;28;20655;-70
2023/03/02 01:24:26;;;;;;;11.03;4.43;;;2.70;98.10;;;;;;5096615;28;20433;-70
2023/03/02 01:26:51;;;;;;;3.13;1.50;;;2.70;98.00;;;;;;5096504;28;20179;-70
2023/03/02 01:29:17;;;;;;;3.47;3.30;;;2.80;98.00;;;;;;5096195;28;20279;-71
2023/03/02 01:31:42;;;;;;;3.97;3.77;;;2.90;98.00;;;;;;5096241;28;20183;-70
2023/03/02 01:34:08;;;;;;;3.07;2.97;;;3.00;97.70;;;;;;5096236;28;20169;-69
2023/03/02 01:36:34;;;;;;;8.80;3.80;;;2.90;97.60;;;;;;5094980;28;20648;-69
2023/03/02 01:38:59;;;;;;;5.33;3.80;;;2.90;97.60;;;;;;5095863;28;20195;-71
2023/03/02 01:41:26;;;;;;;2.63;1.53;;;2.90;97.60;;;;;;5096281;28;20206;-71
2023/03/02 01:43:52;;;;;;;3.25;3.10;;;2.80;97.70;;;;;;5096142;28;20437;-70
2023/03/02 01:46:29;;;;;;;2.10;2.00;;;2.70;97.90;;;;;;5094653;28;20215;-69
2023/03/02 01:49:05;;;;;;;3.72;2.90;;;2.70;98.20;;;;;;5095604;28;20212;-70
2023/03/02 01:51:35;;;;;;;4.10;3.80;;;2.50;98.20;;;;;;5094921;28;20264;-70
2023/03/02 01:54:05;;;;;;;5.82;5.35;;;2.50;98.60;;;;;;5096014;28;20680;-69
2023/03/02 01:56:35;;;;;;;3.92;3.63;;;2.60;98.60;;;;;;5096183;28;20173;-71
2023/03/02 01:59:07;;;;;;;5.47;2.75;;;2.70;98.50;;;;;;5095709;28;20185;-71
2023/03/02 02:01:35;;;;;;;1.55;1.45;;;2.80;98.40;;;;;;5094408;28;20523;-69
2023/03/02 02:04:01;;;;;;;4.00;3.67;;;2.90;98.10;;;;;;5095702;28;20219;-70
2023/03/02 02:06:39;;;;;;;5.55;5.05;;;2.80;98.00;;;;;;5095716;28;20247;-71
2023/03/02 02:09:08;;;;;;;2.10;1.95;;;2.90;98.00;;;;;;5095308;28;20658;-71
2023/03/02 02:11:34;;;;;;;6.10;3.92;;;3.00;97.90;;;;;;5095426;28;20176;-70
2023/03/02 02:14:01;;;;;;;4.93;2.20;;;3.10;97.80;;;;;;5095517;28;20165;-70
2023/03/02 02:16:30;;;;;;;2.08;1.98;;;3.10;97.90;;;;;;5095623;28;20529;-70
2023/03/02 02:18:56;;;;;;;4.18;3.20;;;3.00;97.70;;;;;;5095089;28;20647;-70
2023/03/02 02:21:24;;;;;;;2.20;2.13;;;3.00;97.90;;;;;;5095409;28;20161;-70
2023/03/02 02:24:10;;;;;;;4.63;2.38;;;3.00;98.00;;;;;;5095400;28;20175;-69
2023/03/02 02:26:41;;;;;;;0.57;0.57;;;2.90;98.00;;;;;;5093993;28;20223;-69
2023/03/02 02:29:21;;;;;;;4.07;2.53;;;2.90;97.80;;;;;;5094937;28;20189;-69
2023/03/02 02:32:05;;;;;;;5.38;3.70;;;2.70;97.90;;;;;;5095324;28;20168;-70
2023/03/02 02:34:39;;;;;;;9.82;4.68;;;2.70;98.30;;;;;;5095133;28;20222;-70
2023/03/02 02:37:20;;;;;;;3.42;3.22;;;2.80;98.30;;;;;;5095069;28;20210;-70
2023/03/02 02:39:48;;;;;;;3.75;3.45;;;3.00;98.40;;;;;;5094872;28;20207;-69
2023/03/02 02:42:40;;;;;;;2.60;2.25;;;3.20;97.80;;;;;;5095029;28;20574;-70
2023/03/02 02:45:18;;;;;;;4.88;3.15;;;3.20;97.60;;;;;;5095116;28;20184;-69
2023/03/02 02:47:44;;;;;;;3.25;2.75;;;3.30;97.10;;;;;;5094612;28;20378;-70
2023/03/02 02:50:32;;;;;;;2.87;2.73;;;3.30;97.10;;;;;;5094580;28;20282;-69
2023/03/02 02:53:20;;;;;;;5.43;5.15;;;3.20;97.10;;;;;;5094917;28;20490;-70
2023/03/02 02:55:52;;;;;;;4.00;3.80;;;3.20;96.90;;;;;;5094561;28;20248;-69
2023/03/02 02:58:40;;;;;;;6.07;3.50;;;3.30;96.90;;;;;;5094711;28;20192;-70
2023/03/02 03:01:06;;;;;;;3.92;3.50;;;3.30;96.80;;;;;;5094624;28;20180;-70
2023/03/02 03:03:36;;;;;;;3.72;3.53;;;3.30;96.80;;;;;;5094506;28;20169;-69
2023/03/02 03:06:05;;;;;;;9.43;2.08;;;3.40;96.70;;;;;;5094639;28;20179;-69
2023/03/02 03:08:51;;;;;;;5.35;2.30;;;3.40;96.40;;;;;;5093158;28;20301;-70
2023/03/02 03:11:23;;;;;;;4.38;3.97;;;3.30;96.50;;;;;;5094524;28;20189;-70
2023/03/02 03:14:00;;;;;;;2.83;2.55;;;3.30;96.70;;;;;;5094516;28;20256;-69
2023/03/02 03:16:28;;;;;;;6.57;1.85;;;3.20;96.90;;;;;;5094489;28;20622;-69
2023/03/02 03:18:57;;;;;;;4.72;4.40;;;3.20;96.90;;;;;;5093989;28;20257;-69
2023/03/02 03:21:23;;;;;;;4.30;4.00;;;3.20;96.80;;;;;;5094343;28;20671;-70
2023/03/02 03:23:49;;;;;;;3.60;2.57;;;3.20;96.80;;;;;;5094207;28;20255;-71
2023/03/02 03:26:15;;;;;;;7.03;5.43;;;3.30;96.90;;;;;;5094187;28;20761;-69
2023/03/02 03:28:41;;;;;;;6.57;6.13;;;3.30;96.90;;;;;;5093761;28;20657;-69
2023/03/02 03:31:07;;;;;;;6.70;6.23;;;3.30;97.00;;;;;;5093980;28;20212;-69
2023/03/02 03:33:32;;;;;;;3.27;2.97;;;3.30;96.70;;;;;;5094065;28;20176;-71
2023/03/02 03:35:59;;;;;;;4.20;4.00;;;3.40;96.70;;;;;;5094051;28;20456;-70
2023/03/02 03:38:25;;;;;;;7.30;3.08;;;3.30;96.80;;;;;;5093851;28;20185;-70
2023/03/02 03:40:51;;;;;;;3.92;3.63;;;3.40;96.90;;;;;;5093637;28;20188;-70
2023/03/02 03:43:16;;;;;;;5.23;4.90;;;3.40;97.10;;;;;;5093865;28;20168;-70
2023/03/02 03:45:42;;;;;;;7.73;1.70;;;3.40;97.40;;;;;;5093860;28;20641;-70
2023/03/02 03:48:08;;;;;;;4.90;4.60;;;3.40;97.00;;;;;;5093485;28;20196;-70
2023/03/02 03:50:34;;;;;;;5.70;4.20;;;3.20;96.90;;;;;;5093603;28;20192;-69
2023/03/02 03:52:59;;;;;;;4.18;3.92;;;3.10;97.30;;;;;;5093534;28;20209;-69
2023/03/02 03:55:27;;;;;;;5.47;5.20;;;3.10;97.50;;;;;;5093634;28;20263;-70
2023/03/02 03:57:53;;;;;;;2.55;1.55;;;3.20;97.50;;;;;;5092280;28;20177;-69
2023/03/02 04:00:20;;;;;;;4.07;3.78;;;3.20;97.10;;;;;;5093477;28;20255;-71
2023/03/02 04:02:46;;;;;;;2.20;2.10;;;3.10;97.10;;;;;;5093643;28;20179;-71
2023/03/02 04:05:12;;;;;;;3.60;3.40;;;3.20;97.30;;;;;;5093709;28;20180;-69
2023/03/02 04:07:38;;;;;;;13.25;2.67;;;3.30;97.10;;;;;;5093599;28;20176;-70
2023/03/02 04:10:05;;;;;;;6.90;4.18;;;3.40;96.70;;;;;;5093043;28;20611;-70
2023/03/02 04:12:37;;;;;;;4.43;1.83;;;3.40;96.60;;;;;;5093020;28;20540;-71
2023/03/02 04:15:05;;;;;;;3.22;3.00;;;3.30;96.60;;;;;;5093519;28;20168;-70
2023/03/02 04:17:31;;;;;;;5.68;2.78;;;3.20;97.00;;;;;;5093395;28;20626;-69
2023/03/02 04:19:58;;;;;;;0.60;0.60;;;3.30;97.10;;;;;;5093030;28;20747;-70
2023/03/02 04:22:24;;;;;;;14.48;5.00;;;3.30;97.10;;;;;;5093283;28;20168;-71
2023/03/02 04:24:50;;;;;;;2.65;2.50;;;3.30;96.80;;;;;;5093311;28;20219;-69
2023/03/02 04:27:17;;;;;;;3.70;3.50;;;3.30;96.80;;;;;;5093545;28;20169;-70
2023/03/02 04:29:43;;;;;;;5.25;4.72;;;3.40;96.70;;;;;;5092963;28;20607;-70
2023/03/02 04:32:10;;;;;;;1.77;1.35;;;3.20;96.70;;;;;;5092194;28;20177;-70
2023/03/02 04:34:36;;;;;;;3.33;3.20;;;3.00;97.00;;;;;;5093227;28;20180;-69
2023/03/02 04:37:02;;;;;;;1.95;1.65;;;2.80;97.50;;;;;;5093162;28;20197;-69
2023/03/02 04:39:28;;;;;;;3.80;2.13;;;2.90;97.90;;;;;;5092938;28;20204;-69
2023/03/02 04:41:54;;;;;;;1.87;1.60;;;3.10;97.70;;;;;;5093379;28;20399;-69
2023/03/02 04:44:20;;;;;;;7.85;3.10;;;3.20;97.30;;;;;;5093418;28;20218;-69
2023/03/02 04:46:47;;;;;;;4.72;3.38;;;3.00;97.00;;;;;;5093223;28;20173;-69
2023/03/02 04:49:14;;;;;;;2.45;2.42;;;2.60;97.70;;;;;;5092817;28;20242;-69
2023/03/02 04:51:43;;;;;;;7.43;2.55;;;2.70;98.20;;;;;;5093039;28;20261;-69
2023/03/02 04:54:21;;;;;;;7.38;4.95;;;2.50;98.20;;;;;;5093061;28;20169;-69
2023/03/02 04:56:47;;;;;;;4.20;3.90;;;2.50;98.40;;;;;;5093105;28;20177;-69
2023/03/02 04:59:14;;;;;;;2.35;2.22;;;2.60;98.50;;;;;;5092745;28;20189;-70
2023/03/02 05:01:40;;;;;;;2.90;2.70;;;2.70;98.10;;;;;;5093084;28;20169;-69
2023/03/02 05:04:06;;;;;;;4.17;3.97;;;2.70;97.90;;;;;;5093408;28;20550;-70
2023/03/02 05:06:32;;;;;;;2.30;2.22;;;2.80;98.10;;;;;;5093136;28;20762;-69
2023/03/02 05:08:59;;;;;;;1.07;1.07;;;2.80;97.90;;;;;;5092654;28;20185;-69
2023/03/02 05:11:25;;;;;;;2.22;2.13;;;2.80;97.80;;;;;;5093013;28;20450;-68
2023/03/02 05:13:54;;;;;;;2.33;2.22;;;2.70;97.90;;;;;;5093002;28;20177;-70
2023/03/02 05:16:20;;;;;;;2.78;2.67;;;2.80;97.90;;;;;;5092989;28;20176;-69
2023/03/02 05:18:46;;;;;;;2.15;2.05;;;3.00;97.70;;;;;;5092786;28;20204;-70
2023/03/02 05:21:13;;;;;;;2.63;2.53;;;3.10;97.60;;;;;;5092921;28;20645;-69
2023/03/02 05:23:40;;;;;;;5.10;4.38;;;3.10;97.30;;;;;;5092730;28;20188;-69
2023/03/02 05:26:05;;;;;;;2.30;2.20;;;3.10;97.10;;;;;;5095006;28;20169;-69
2023/03/02 05:28:32;;;;;;;5.57;3.63;;;3.00;97.10;;;;;;5096416;28;20314;-70
2023/03/02 05:30:58;;;;;;;8.98;7.18;;;3.00;97.30;;;;;;5096170;28;20643;-69
2023/03/02 05:33:24;;;;;;;7.47;4.82;;;3.10;97.40;;;;;;5096246;28;20172;-70
2023/03/02 05:35:50;;;;;;;4.63;4.27;;;3.30;97.20;;;;;;5096440;28;20260;-69
2023/03/02 05:38:16;;;;;;;4.70;4.50;;;3.40;96.80;;;;;;5096199;28;20422;-70
2023/03/02 05:40:42;;;;;;;3.20;2.83;;;3.60;96.50;;;;;;5096064;28;20230;-71
2023/03/02 05:43:09;;;;;;;2.73;2.30;;;3.60;96.30;;;;;;5094973;28;20179;-70
2023/03/02 05:45:37;;;;;;;10.43;4.15;;;3.60;96.30;;;;;;5096127;28;20449;-70
2023/03/02 05:48:04;;;;;;;2.22;1.88;;;3.50;96.00;;;;;;5095804;28;20600;-71
2023/03/02 05:50:30;;;;;;;2.10;1.90;;;3.50;96.20;;;;;;5094407;28;20242;-69
2023/03/02 05:52:55;;;;;;;2.55;2.35;;;3.60;95.90;;;;;;5095957;28;20197;-70
2023/03/02 05:55:21;;;;;;;1.83;1.80;;;3.50;95.80;;;;;;5095960;28;20675;-70
2023/03/02 05:57:50;;;;;;;5.20;3.53;;;3.30;96.00;;;;;;5095873;28;20402;-69
2023/03/02 06:00:16;;;;;;;5.63;4.28;;;3.20;96.30;;;;;;5095503;28;20168;-70
2023/03/02 06:02:42;;;;;;;0.93;0.93;;;3.20;96.30;;;;;;5095844;28;20687;-70
2023/03/02 06:05:11;;;;;;;3.67;3.47;;;3.40;96.30;;;;;;5094444;28;20173;-70
2023/03/02 06:07:37;;;;;;;2.75;2.55;;;3.40;96.10;;;;;;5095667;28;20177;-69
2023/03/02 06:10:04;;;;;;;3.95;3.30;;;3.40;96.00;;;;;;5095245;28;20211;-69
2023/03/02 06:12:30;;;;;;;2.30;2.10;;;3.40;96.00;;;;;;5095614;28;20714;-70
2023/03/02 06:14:56;;;;;;;6.53;3.17;;;3.40;96.00;;;;;;5095610;28;20184;-70
2023/03/02 06:17:22;;;;;;;3.43;3.13;;;3.30;96.00;;;;;;5095615;28;20896;-70
2023/03/02 06:19:47;;;;;;;3.97;3.70;;;3.20;96.10;;;;;;5095198;28;20196;-70
2023/03/02 06:22:13;;;;;;;2.60;2.40;;;3.20;96.30;;;;;;5095422;28;20181;-70
2023/03/02 06:24:38;;;;;;;5.60;3.33;;;3.10;96.80;;;;;;5095411;28;20645;-69
2023/03/02 06:27:04;;;;;;;6.93;5.97;;;3.10;96.80;;;;;;5095299;28;20710;-68
2023/03/02 06:29:30;;;;;;;6.83;6.07;;;3.20;96.50;;;;;;5094807;28;20245;-70
2023/03/02 06:31:55;;;;;;;3.73;3.53;;;3.30;96.30;;;;;;5095279;28;20536;-70
2023/03/02 06:34:21;;;;;;;4.73;4.37;;;3.40;96.20;;;;;;5095028;28;20205;-68
2023/03/02 06:36:46;;;;;;;4.77;3.63;;;3.30;96.10;;;;;;5094669;28;20169;-70
2023/03/02 06:39:15;;;;;;;4.43;3.67;;;3.40;96.10;;;;;;5094794;28;20234;-70
2023/03/02 06:41:44;;;;;;;3.00;2.53;;;3.40;96.10;;;;;;5095001;28;20173;-69
2023/03/02 06:44:11;;;;;;;3.97;3.58;;;3.40;95.80;;;;;;5094860;28;20177;-69
2023/03/02 06:46:38;;;;;;;8.10;1.80;;;3.40;95.70;;;;;;5093568;28;20536;-69
2023/03/02 06:49:04;;;;;;;5.68;4.68;;;3.50;96.00;;;;;;5094440;28;20216;-70
2023/03/02 06:51:30;;;;;;;3.80;3.47;;;3.40;95.90;;;;;;5094766;28;20207;-69
2023/03/02 06:53:55;;;;;;;6.18;5.55;;;3.40;95.80;;;;;;5093455;28;20406;-69
2023/03/02 06:56:21;;;;;;;0.80;0.80;;;3.50;95.80;;;;;;5094763;28;20165;-70
2023/03/02 06:58:47;;;;;;;7.50;7.00;;;3.60;95.80;;;;;;5094550;28;20238;-69
2023/03/02 07:01:13;;;;;;;1.63;1.55;;;3.70;95.80;;;;;;5094750;28;20201;-71
2023/03/02 07:03:38;;;;;;;4.23;3.83;;;3.70;95.30;;;;;;5094569;28;20602;-69
2023/03/02 07:06:04;;;;;;;2.83;2.70;;;3.70;95.30;;;;;;5094756;28;20438;-69
2023/03/02 07:08:30;;;;;;;3.47;3.27;;;3.60;95.30;;;;;;5094301;28;20725;-69
2023/03/02 07:10:55;;;;;;;6.20;4.53;;;3.60;95.50;;;;;;5094191;28;20794;-70
2023/03/02 07:13:21;;;;;;;2.03;1.83;;;3.60;95.40;;;;;;5094317;28;20166;-69
2023/03/02 07:15:47;;;;;;;2.23;2.13;;;3.70;95.60;;;;;;5094249;28;20218;-70
2023/03/02 07:18:12;;;;;;;4.13;2.50;;;3.70;95.20;;;;;;5094148;28;20203;-69
2023/03/02 07:20:38;;;;;;;2.47;1.30;;;3.70;95.10;;;;;;5094157;28;20631;-70
2023/03/02 07:23:04;;;;;;;3.13;2.87;;;3.70;95.00;;;;;;5094287;28;20530;-70
2023/03/02 07:25:30;;;;;;;6.55;5.30;;;3.60;95.10;;;;;;5094170;28;20164;-68
2023/03/02 07:27:56;;;;;;;6.10;4.13;;;3.70;95.40;;;;;;5094180;28;20195;-70
2023/03/02 07:30:21;;;;;;;19.53;5.50;;;3.80;95.40;;;;;;5093870;28;20208;-70
2023/03/02 07:32:48;;;;;;;8.03;4.20;;;3.90;95.30;;;;;;5094048;28;20210;-69
2023/03/02 07:35:13;;;;;;;2.70;2.53;;;4.00;94.80;;;;;;5094015;28;20164;-69
2023/03/02 07:37:39;;;;;;;2.30;2.20;;;4.10;94.50;;;;;;5094002;28;20179;-70
2023/03/02 07:40:06;;;;;;;4.07;3.77;;;4.00;94.30;;;;;;5093521;28;20224;-70
2023/03/02 07:42:32;;;;;;;6.47;4.07;;;3.90;94.30;;;;;;5093760;28;20411;-69
2023/03/02 07:44:58;;;;;;;4.22;2.35;;;3.90;94.40;;;;;;5094131;28;20172;-71
2023/03/02 07:47:24;;;;;;;4.10;3.80;;;3.90;94.40;;;;;;5093329;28;20211;-70
2023/03/02 07:49:49;;;;;;;6.93;2.70;;;3.80;94.40;;;;;;5093181;28;20192;-70
2023/03/02 07:52:15;;;;;;;3.10;3.00;;;3.80;94.50;;;;;;5093700;28;20165;-68
2023/03/02 07:54:41;;;;;;;5.77;3.33;;;3.80;94.40;;;;;;5093722;28;20169;-69
2023/03/02 07:57:07;;;;;;;1.27;1.27;;;3.90;94.40;;;;;;5093584;28;20172;-69
2023/03/02 07:59:32;;;;;;;2.67;2.47;;;4.00;94.50;;;;;;5093295;28;20242;-69
2023/03/02 08:01:58;;;;;;;2.70;2.50;;;4.00;94.40;;;;;;5092149;28;20168;-68
2023/03/02 08:04:24;;;;;;;16.20;4.40;;;4.10;94.50;;;;;;5093595;28;20173;-70
2023/03/02 08:06:49;;;;;;;3.73;3.53;;;4.00;94.20;;;;;;5093623;28;20664;-68
2023/03/02 08:09:16;;;;;;;4.10;3.80;;;4.00;94.30;;;;;;5093149;28;20784;-70
2023/03/02 08:11:41;;;;;;;7.53;5.43;;;4.10;94.50;;;;;;5093385;28;20555;-69
2023/03/02 08:14:07;;;;;;;4.53;4.10;;;4.30;94.60;;;;;;5093585;28;20175;-69
2023/03/02 08:16:33;;;;;;;2.33;1.70;;;4.30;94.20;;;;;;5093583;28;20630;-69
2023/03/02 08:18:58;;;;;;;31.47;4.80;;;4.30;93.80;;;;;;5093187;28;20220;-69
2023/03/02 08:21:25;;;;;;;3.97;3.67;;;4.20;93.70;;;;;;5093447;28;20181;-69
2023/03/02 08:23:51;;;;;;;5.90;4.05;;;3.80;94.10;;;;;;5093363;28;20169;-71
2023/03/02 08:26:18;;;;;;;7.00;5.03;;;3.80;94.70;;;;;;5093036;28;20177;-69
2023/03/02 08:28:45;;;;;;;5.72;5.32;;;3.90;95.00;;;;;;5093322;28;20196;-71
2023/03/02 08:31:12;;;;;;;10.05;4.95;;;4.20;95.10;;;;;;5091965;28;20232;-70
2023/03/02 08:33:37;;;;;;;6.75;5.38;;;4.40;94.20;;;;;;5093140;28;20649;-69
2023/03/02 08:36:10;;;;;;;1.70;1.60;;;4.60;93.80;;;;;;5093341;28;20181;-69
2023/03/02 08:38:36;;;;;;;7.78;3.28;;;4.60;93.50;;;;;;5093491;28;20184;-69
2023/03/02 08:41:05;;;;;;;4.90;4.57;;;4.60;93.30;;;;;;5093032;28;20652;-71
2023/03/02 08:43:31;;;;;;;1.85;1.75;;;4.50;93.20;;;;;;5093013;28;20821;-71
2023/03/02 08:45:57;;;;;;;3.45;3.20;;;4.40;93.40;;;;;;5092975;28;20224;-72
2023/03/02 08:48:23;;;;;;;6.53;4.73;;;4.20;93.50;;;;;;5092929;28;20200;-69
2023/03/02 08:50:55;;;;;;;2.28;2.17;;;4.20;93.90;;;;;;5092867;28;20198;-71
2023/03/02 08:53:21;;;;;;;2.13;2.03;;;4.30;94.00;;;;;;5093104;28;20183;-69
2023/03/02 08:55:49;;;;;;;3.63;3.33;;;4.20;93.60;;;;;;5093026;28;20184;-72
2023/03/02 08:58:14;;;;;;;6.32;5.78;;;4.00;94.10;;;;;;5092898;28;20283;-69
2023/03/02 09:00:40;;;;;;;3.90;3.63;;;4.00;94.70;;;;;;5096503;28;20177;-70
2023/03/02 09:03:05;;;;;;;1.10;1.03;;;4.10;94.50;;;;;;5097437;28;20198;-71
2023/03/02 09:05:31;;;;;;;6.97;5.10;;;4.20;94.50;;;;;;5097254;28;20257;-71
2023/03/02 09:07:56;;;;;;;3.37;3.00;;;4.20;94.40;;;;;;5096722;28;20203;-71
2023/03/02 09:10:22;;;;;;;7.13;5.03;;;4.30;94.30;;;;;;5096692;28;20197;-70
2023/03/02 09:12:48;;;;;;;4.30;3.90;;;4.50;94.10;;;;;;5096885;28;20169;-72
2023/03/02 09:15:13;;;;;;;6.30;3.13;;;4.60;93.70;;;;;;5096989;28;20169;-70
2023/03/02 09:17:39;;;;;;;2.83;2.63;;;4.70;93.50;;;;;;5096604;28;20274;-71
2023/03/02 09:20:05;;;;;;;8.80;6.70;;;4.60;93.40;;;;;;5096524;28;20207;-71
2023/03/02 09:22:34;;;;;;;5.30;2.22;;;4.60;93.40;;;;;;5096994;28;20222;-73
2023/03/02 09:25:00;;;;;;;2.25;2.05;;;4.60;93.40;;;;;;5095397;28;20206;-72
2023/03/02 09:27:26;;;;;;;2.65;2.45;;;4.60;93.50;;;;;;5096719;28;20619;-73
2023/03/02 09:29:52;;;;;;;7.73;7.17;;;4.60;93.40;;;;;;5096120;28;20283;-72
2023/03/02 09:32:17;;;;;;;4.73;4.10;;;4.60;93.30;;;;;;5096782;28;20553;-71
2023/03/02 09:34:43;;;;;;;4.80;4.53;;;4.40;93.40;;;;;;5096647;28;20172;-70
2023/03/02 09:37:09;;;;;;;3.17;2.87;;;4.40;93.90;;;;;;5096506;28;20169;-71
2023/03/02 09:39:36;;;;;;;20.77;6.90;;;4.60;93.90;;;;;;5095940;28;20192;-71
2023/03/02 09:42:40;;;;;;;3.53;3.15;;;4.90;93.90;;;;;;5096416;28;20190;-70
2023/03/02 09:45:32;;;;;;;3.53;3.15;;;5.20;93.20;;;;;;5096767;28;20177;-70
2023/03/02 09:47:58;;;;;;;5.05;4.65;;;5.30;92.40;;;;;;5094769;28;20231;-73
2023/03/02 09:50:32;;;;;;;6.53;6.03;;;5.40;92.40;;;;;;5096107;28;20198;-72
2023/03/02 09:53:35;;;;;;;3.88;1.80;;;5.50;91.90;;;;;;5095153;28;20173;-72
2023/03/02 09:56:01;;;;;;;6.40;2.60;;;5.60;92.10;;;;;;5095912;28;20173;-72
2023/03/02 09:58:37;;;;;;;5.03;4.53;;;5.70;91.60;;;;;;5095756;28;20671;-73
2023/03/02 10:01:10;;;;;;;8.32;2.60;;;5.90;91.60;;;;;;5096016;28;20650;-73
2023/03/02 10:03:46;;;;;;;3.60;2.72;;;6.00;91.40;;;;;;5096404;28;20201;-70
2023/03/02 10:06:12;;;;;;;7.55;6.18;;;6.10;90.90;;;;;;5095708;28;20194;-73
2023/03/02 10:08:39;;;;;;;5.93;4.33;;;6.20;90.90;;;;;;5095772;28;20585;-72
2023/03/02 10:11:35;;;;;;;3.97;1.60;;;6.40;90.90;;;;;;5094891;28;20202;-73
2023/03/02 10:14:07;;;;;;;5.15;2.78;;;6.70;90.30;;;;;;5096153;28;20189;-73
2023/03/02 10:16:47;;;;;;;5.00;4.07;;;6.90;89.70;;;;;;5095575;28;20169;-70
2023/03/02 10:19:21;;;;;;;3.40;3.10;;;7.00;89.50;;;;;;5095397;28;20188;-71
2023/03/02 10:21:50;;;;;;;8.07;2.85;;;7.10;88.40;;;;;;5096028;28;20606;-70
2023/03/02 10:24:39;;;;;;;4.82;4.28;;;7.10;88.40;;;;;;5095750;28;20251;-70
2023/03/02 10:27:43;;;;;;;5.75;5.18;;;7.20;87.00;;;;;;5095554;28;20175;-72
2023/03/02 10:30:34;;;;;;;6.78;5.57;;;7.20;86.70;;;;;;5093112;28;20204;-71
2023/03/02 10:33:11;;;;;;;5.22;4.15;;;6.90;86.40;;;;;;5094301;28;20167;-72
2023/03/02 10:35:41;;;;;;;6.30;4.82;;;6.30;87.90;;;;;;5095433;28;20186;-72
2023/03/02 10:38:20;;;;;;;7.28;6.07;;;6.40;89.70;;;;;;5094256;28;20277;-73
2023/03/02 10:40:55;;;;;;;2.60;1.88;;;6.60;89.70;;;;;;5095343;28;20198;-73
2023/03/02 10:43:44;;;;;;;3.67;3.30;;;6.90;89.20;;;;;;5095506;28;20253;-72
2023/03/02 10:46:11;;;;;;;12.88;5.28;;;7.10;87.70;;;;;;5095148;28;20172;-70
2023/03/02 10:48:58;;;;;;;7.10;4.72;;;6.80;87.10;;;;;;5093806;28;20207;-70
2023/03/02 10:51:27;;;;;;;2.10;1.95;;;6.70;87.80;;;;;;5094998;28;20208;-70
2023/03/02 10:54:22;;;;;;;6.25;4.00;;;6.60;88.00;;;;;;5095360;28;20164;-73
2023/03/02 10:56:51;;;;;;;3.47;3.10;;;6.30;88.30;;;;;;5081772;28;20233;-71
2023/03/02 10:59:22;;;;;;;5.55;4.75;;;6.20;89.10;;;;;;5094707;28;20668;-72
2023/03/02 11:02:08;;;;;;;5.78;3.72;;;6.10;90.00;;;;;;5095087;28;20226;-71
2023/03/02 11:04:34;;;;;;;4.13;3.35;;;6.50;90.30;;;;;;5094583;28;20172;-71
2023/03/02 11:07:14;;;;;;;3.23;2.97;;;7.20;89.30;;;;;;5094551;28;20693;-70
2023/03/02 11:09:39;;;;;;;5.53;4.18;;;7.60;86.10;;;;;;5094041;28;20195;-71
2023/03/02 11:12:20;;;;;;;6.27;5.20;;;7.80;86.70;;;;;;5094511;28;20173;-71
2023/03/02 11:14:46;;;;;;;7.88;7.18;;;8.00;84.00;;;;;;5094291;28;20161;-71
2023/03/02 11:17:36;;;;;;;7.40;6.03;;;8.00;83.20;;;;;;5094139;28;20362;-71
2023/03/02 11:20:03;;;;;;;5.63;5.10;;;8.50;83.20;;;;;;5091806;28;20203;-71
2023/03/02 11:22:38;;;;;;;5.03;4.38;;;8.70;81.30;;;;;;5094158;28;20259;-71
2023/03/02 11:25:15;;;;;;;3.45;1.50;;;8.90;81.10;;;;;;5094131;28;20179;-74
2023/03/02 11:27:43;;;;;;;4.80;3.58;;;9.20;80.60;;;;;;5092691;28;20181;-75
2023/03/02 11:30:19;;;;;;;6.50;6.03;;;9.30;78.40;;;;;;5093786;28;20259;-73
2023/03/02 11:32:44;;;;;;;6.57;5.13;;;9.00;79.00;;;;;;5091845;28;20173;-72
2023/03/02 11:35:17;;;;;;;6.53;4.47;;;8.70;79.70;;;;;;5094106;28;20210;-72
2023/03/02 11:37:53;;;;;;;3.03;2.72;;;8.90;80.50;;;;;;5094134;28;20407;-74
2023/03/02 11:40:30;;;;;;;3.25;2.05;;;8.70;80.10;;;;;;5094016;28;20637;-74
2023/03/02 11:42:59;;;;;;;4.55;3.00;;;8.60;80.30;;;;;;5094338;28;20168;-74
2023/03/02 11:45:28;;;;;;;6.45;3.65;;;8.80;81.00;;;;;;5092509;28;20638;-73
2023/03/02 11:48:10;;;;;;;4.10;3.72;;;8.70;80.20;;;;;;5093771;28;20184;-75
2023/03/02 11:51:00;;;;;;;9.48;6.97;;;8.30;79.90;;;;;;5092395;28;20211;-72
2023/03/02 11:53:44;;;;;;;4.78;4.47;;;7.90;81.30;;;;;;5092995;28;20201;-73
2023/03/02 11:56:09;;;;;;;5.22;3.53;;;7.80;82.70;;;;;;5093024;28;20226;-72
2023/03/02 11:58:36;;;;;;;8.23;4.63;;;7.60;82.90;;;;;;5093777;28;20192;-77
2023/03/02 12:01:03;;;;;;;5.40;5.10;;;7.40;83.20;;;;;;5093581;28;20176;-72
2023/03/02 12:03:31;;;;;;;3.55;2.13;;;7.30;83.80;;;;;;5093860;28;20526;-77
2023/03/02 12:06:03;;;;;;;9.93;3.63;;;7.40;84.20;;;;;;5093966;28;20561;-75
2023/03/02 12:08:33;;;;;;;5.55;4.30;;;7.20;84.60;;;;;;5093379;28;20191;-76
2023/03/02 12:11:34;;;;;;;7.47;6.32;;;7.10;84.90;;;;;;5093498;28;20591;-75
2023/03/02 12:14:03;;;;;;;2.17;2.08;;;7.20;85.10;;;;;;5092066;28;20181;-72
2023/03/02 12:16:37;;;;;;;15.32;3.58;;;7.10;86.20;;;;;;5093962;28;20173;-71
2023/03/02 12:19:15;;;;;;;5.82;5.25;;;7.10;85.60;;;;;;5093367;28;20184;-72
2023/03/02 12:22:08;;;;;;;10.60;5.90;;;7.30;86.10;;;;;;5093546;28;20738;-71
2023/03/02 12:24:36;;;;;;;6.10;4.95;;;7.20;85.00;;;;;;5093397;28;20741;-73
2023/03/02 12:27:03;;;;;;;4.68;3.40;;;7.20;85.10;;;;;;5092556;28;20176;-73
2023/03/02 12:29:44;;;;;;;4.38;3.97;;;7.30;85.80;;;;;;5093179;28;20185;-72
2023/03/02 12:32:26;;;;;;;7.70;4.07;;;7.20;85.50;;;;;;5092368;28;20264;-72
2023/03/02 12:34:58;;;;;;;10.10;3.45;;;7.20;85.50;;;;;;5095867;28;20179;-74
2023/03/02 12:37:30;;;;;;;4.75;4.35;;;7.00;86.10;;;;;;5096845;28;20167;-71
2023/03/02 12:40:24;;;;;;;4.60;3.70;;;6.80;86.90;;;;;;5097206;28;20285;-72
2023/03/02 12:43:27;;;;;;;2.28;2.17;;;6.60;87.50;;;;;;5096430;28;20167;-75
2023/03/02 12:46:08;;;;;;;5.28;4.75;;;6.50;88.30;;;;;;5097824;28;20176;-74
2023/03/02 12:48:39;;;;;;;5.15;4.65;;;6.50;88.60;;;;;;5096302;28;20226;-72
2023/03/02 12:51:25;;;;;;;8.52;7.07;;;6.60;88.60;;;;;;5096756;28;20204;-71
2023/03/02 12:54:12;;;;;;;4.03;2.90;;;6.60;88.40;;;;;;5097307;28;20627;-71
2023/03/02 12:56:37;;;;;;;4.07;3.63;;;6.70;88.70;;;;;;5097160;28;20643;-71
2023/03/02 12:59:03;;;;;;;4.77;4.37;;;6.80;88.20;;;;;;5095980;28;20270;-71
2023/03/02 13:01:31;;;;;;;4.47;4.03;;;6.70;88.20;;;;;;5095665;28;20566;-73
2023/03/02 13:03:58;;;;;;;10.50;3.42;;;6.70;88.10;;;;;;5096503;28;20401;-72
2023/03/02 13:06:28;;;;;;;6.80;6.15;;;6.60;88.40;;;;;;5096363;28;20211;-71
2023/03/02 13:08:56;;;;;;;5.82;5.18;;;6.50;89.00;;;;;;5096483;28;20195;-77
2023/03/02 13:11:32;;;;;;;5.07;3.53;;;6.60;89.00;;;;;;5097215;28;20197;-71